createdAt,value
2024-03-11T00:02:02.574Z,98646.59
2024-03-11T00:04:30.051Z,98656.72
2024-03-11T00:06:58.871Z,98652.47
2024-03-11T00:09:34.483Z,98647.13
2024-03-11T00:12:01.697Z,98654.41
2024-03-11T00:14:31.257Z,98664.09
2024-03-11T00:16:58.911Z,98669.28
2024-03-11T00:19:27.300Z,98667.63
2024-03-11T00:21:57.885Z,98655.56
2024-03-11T00:24:25.426Z,98652.72
2024-03-11T00:26:52.692Z,98648.34
2024-03-11T00:29:20.560Z,98658.03
2024-03-11T00:31:47.293Z,98648.16
2024-03-11T00:34:18.273Z,98656.91
2024-03-11T00:36:49.227Z,98664.00
2024-03-11T00:39:16.866Z,98665.66
2024-03-11T00:41:43.798Z,98661.00
2024-03-11T00:44:10.734Z,98673.59
2024-03-11T00:46:37.235Z,98684.38
2024-03-11T00:49:06.567Z,98687.25
2024-03-11T00:51:36.296Z,98689.16
2024-03-11T00:54:02.898Z,98685.75
2024-03-11T00:56:29.434Z,98692.56
2024-03-11T00:58:55.922Z,98682.59
2024-03-11T01:01:22.475Z,98699.56
2024-03-11T01:03:49.005Z,98704.88
2024-03-11T01:06:16.893Z,98710.88
2024-03-11T01:08:43.585Z,98698.28
2024-03-11T01:11:11.915Z,98700.88
2024-03-11T01:13:38.866Z,98703.88
2024-03-11T01:16:08.742Z,98711.00
2024-03-11T01:18:35.287Z,98718.13
2024-03-11T01:21:03.482Z,98714.53
2024-03-11T01:23:30.106Z,98699.22
2024-03-11T01:25:57.037Z,98684.88
2024-03-11T01:28:23.545Z,98690.75
2024-03-11T01:30:50.161Z,98680.06
2024-03-11T01:33:16.903Z,98671.44
2024-03-11T01:35:44.508Z,98681.44
2024-03-11T01:38:11.566Z,98685.25
2024-03-11T01:40:38.130Z,98685.25
2024-03-11T01:43:05.810Z,98662.53
2024-03-11T01:45:33.882Z,98661.59
2024-03-11T01:48:01.689Z,98649.00
2024-03-11T01:50:29.793Z,98639.00
2024-03-11T01:52:57.463Z,98647.47
2024-03-11T01:55:28.923Z,98659.22
2024-03-11T01:57:56.724Z,98658.41
2024-03-11T02:00:23.845Z,98655.13
2024-03-11T02:02:55.939Z,98649.38
2024-03-11T02:05:25.384Z,98662.81
2024-03-11T02:08:00.918Z,98654.31
2024-03-11T02:10:29.017Z,98648.66
2024-03-11T02:12:57.393Z,98647.47
2024-03-11T02:15:23.997Z,98654.38
2024-03-11T02:17:50.832Z,98649.63
2024-03-11T02:20:19.147Z,98654.81
2024-03-11T02:22:50.997Z,98651.25
2024-03-11T02:25:36.853Z,98638.81
2024-03-11T02:28:06.435Z,98636.91
2024-03-11T02:30:33.975Z,98636.22
2024-03-11T02:33:00.685Z,98651.78
2024-03-11T02:35:27.736Z,98641.53
2024-03-11T02:37:54.329Z,98640.72
2024-03-11T02:40:27.680Z,98637.66
2024-03-11T02:42:58.172Z,98643.56
2024-03-11T02:45:27.179Z,98638.38
2024-03-11T02:47:54.213Z,98640.25
2024-03-11T02:50:20.846Z,98636.16
2024-03-11T02:52:47.747Z,98637.94
2024-03-11T02:55:19.998Z,98624.78
2024-03-11T02:57:49.746Z,98637.47
2024-03-11T03:00:17.979Z,98644.00
2024-03-11T03:02:44.721Z,98649.06
2024-03-11T03:05:13.445Z,98644.81
2024-03-11T03:07:40.540Z,98636.34
2024-03-11T03:10:07.837Z,98637.31
2024-03-11T03:12:34.623Z,98649.06
2024-03-11T03:15:01.779Z,98646.47
2024-03-11T03:17:28.317Z,98648.94
2024-03-11T03:19:56.557Z,98647.97
2024-03-11T03:22:23.082Z,98643.50
2024-03-11T03:24:51.202Z,98632.56
2024-03-11T03:27:17.942Z,98645.25
2024-03-11T03:29:45.739Z,98639.13
2024-03-11T03:32:13.362Z,98632.78
2024-03-11T03:34:40.397Z,98650.56
2024-03-11T03:37:07.110Z,98656.59
2024-03-11T03:39:35.110Z,98661.78
2024-03-11T03:42:01.747Z,98650.47
2024-03-11T03:44:28.249Z,98627.59
2024-03-11T03:46:56.590Z,98637.31
2024-03-11T03:49:23.075Z,98647.88
2024-03-11T03:51:49.536Z,98654.94
2024-03-11T03:54:18.926Z,98643.75
2024-03-11T03:56:46.453Z,98650.72
2024-03-11T03:59:13.162Z,98645.66
2024-03-11T04:01:39.745Z,98647.16
2024-03-11T04:04:06.258Z,98642.50
2024-03-11T04:06:33.556Z,98648.50
2024-03-11T04:09:00.031Z,98636.84
2024-03-11T04:11:28.266Z,98644.25
2024-03-11T04:13:54.970Z,98645.75
2024-03-11T04:16:21.765Z,98637.69
2024-03-11T04:18:48.696Z,98641.78
2024-03-11T04:21:17.238Z,98644.81
2024-03-11T04:23:45.751Z,98637.03
2024-03-11T04:26:12.606Z,98636.34
2024-03-11T04:28:39.182Z,98644.81
2024-03-11T04:31:06.220Z,98637.19
2024-03-11T04:33:32.998Z,98633.06
2024-03-11T04:35:59.840Z,98637.31
2024-03-11T04:38:27.741Z,98644.25
2024-03-11T04:40:54.302Z,98638.34
2024-03-11T04:43:21.955Z,98631.66
2024-03-11T04:45:48.466Z,98638.50
2024-03-11T04:48:15.144Z,98631.94
2024-03-11T04:50:43.986Z,98635.34
2024-03-11T04:53:11.799Z,98627.78
2024-03-11T04:55:38.627Z,98640.38
2024-03-11T04:58:05.888Z,98632.16
2024-03-11T05:00:33.573Z,98637.94
2024-03-11T05:03:02.532Z,98631.22
2024-03-11T05:05:36.108Z,98619.06
2024-03-11T05:08:05.116Z,98628.78
2024-03-11T05:10:32.268Z,98620.38
2024-03-11T05:13:01.643Z,98611.94
2024-03-11T05:15:28.644Z,98620.16
2024-03-11T05:17:55.745Z,98630.53
2024-03-11T05:20:22.626Z,98630.53
2024-03-11T05:22:49.921Z,98629.56
2024-03-11T05:25:16.825Z,98626.28
2024-03-11T05:27:46.432Z,98629.16
2024-03-11T05:30:13.251Z,98623.25
2024-03-11T05:32:41.191Z,98628.88
2024-03-11T05:35:08.252Z,98626.56
2024-03-11T05:37:34.787Z,98623.13
2024-03-11T05:40:02.415Z,98630.19
2024-03-11T05:42:28.913Z,98632.78
2024-03-11T05:44:59.987Z,98640.00
2024-03-11T05:47:27.296Z,98627.31
2024-03-11T05:49:55.433Z,98629.38
2024-03-11T05:52:26.074Z,98643.88
2024-03-11T05:54:54.368Z,98633.63
2024-03-11T05:57:28.050Z,98642.47
2024-03-11T05:59:54.970Z,98657.91
2024-03-11T06:02:22.115Z,98655.81
2024-03-11T06:04:49.065Z,98662.16
2024-03-11T06:07:25.283Z,98652.59
2024-03-11T06:09:52.963Z,98646.97
2024-03-11T06:12:22.486Z,98662.84
2024-03-11T06:14:50.007Z,98673.66
2024-03-11T06:17:17.803Z,98673.66
2024-03-11T06:19:45.838Z,98670.38
2024-03-11T06:22:13.054Z,98675.31
2024-03-11T06:24:39.924Z,98666.69
2024-03-11T06:27:06.746Z,98680.13
2024-03-11T06:29:33.523Z,98678.09
2024-03-11T06:32:00.269Z,98680.38
2024-03-11T06:34:28.749Z,98674.09
2024-03-11T06:36:56.412Z,98687.41
2024-03-11T06:39:23.020Z,98681.41
2024-03-11T06:41:49.778Z,98688.94
2024-03-11T06:44:21.290Z,98694.56
2024-03-11T06:46:58.626Z,98693.84
2024-03-11T06:49:26.008Z,98690.78
2024-03-11T06:51:52.587Z,98698.44
2024-03-11T06:54:19.242Z,98693.81
2024-03-11T06:56:45.822Z,98693.69
2024-03-11T06:59:12.496Z,98694.38
2024-03-11T07:01:39.067Z,98681.28
2024-03-11T07:04:05.731Z,98684.56
2024-03-11T07:06:32.425Z,98680.72
2024-03-11T07:08:58.909Z,98677.97
2024-03-11T07:11:25.627Z,98665.38
2024-03-11T07:13:52.564Z,98675.84
2024-03-11T07:16:19.706Z,98666.38
2024-03-11T07:18:47.546Z,98686.28
2024-03-11T07:21:14.213Z,98677.78
2024-03-11T07:23:40.812Z,98680.97
2024-03-11T07:26:09.096Z,98692.97
2024-03-11T07:28:35.621Z,98693.94
2024-03-11T07:31:02.366Z,98685.19
2024-03-11T07:33:29.366Z,98696.53
2024-03-11T07:35:59.002Z,98708.44
2024-03-11T07:38:27.179Z,98705.72
2024-03-11T07:40:53.811Z,98710.91
2024-03-11T07:43:20.337Z,98697.72
2024-03-11T07:45:46.933Z,98722.09
2024-03-11T07:48:16.421Z,98705.28
2024-03-11T07:50:43.346Z,98716.91
2024-03-11T07:53:09.983Z,98718.69
2024-03-11T07:55:36.954Z,98726.09
2024-03-11T07:58:04.039Z,98727.63
2024-03-11T08:00:31.185Z,98723.50
2024-03-11T08:02:59.502Z,98726.09
2024-03-11T08:05:28.162Z,98739.38
2024-03-11T08:07:54.964Z,98736.69
2024-03-11T08:10:22.328Z,98725.59
2024-03-11T08:12:49.542Z,98728.75
2024-03-11T08:15:16.887Z,98722.16
2024-03-11T08:17:47.754Z,98710.56
2024-03-11T08:20:19.273Z,98706.34
2024-03-11T08:22:48.713Z,98708.69
2024-03-11T08:25:28.834Z,98717.03
2024-03-11T08:27:55.847Z,98708.78
2024-03-11T08:30:24.013Z,98713.44
2024-03-11T08:32:54.412Z,98711.28
2024-03-11T08:35:22.872Z,98705.81
2024-03-11T08:37:51.084Z,98695.69
2024-03-11T08:40:21.088Z,98712.16
2024-03-11T08:42:54.485Z,98705.44
2024-03-11T08:45:23.905Z,98707.91
2024-03-11T08:47:51.559Z,98712.56
2024-03-11T08:50:18.576Z,98716.69
2024-03-11T08:52:47.241Z,98719.28
2024-03-11T08:55:15.106Z,98717.97
2024-03-11T08:57:44.501Z,98717.69
2024-03-11T09:00:12.907Z,98719.34
2024-03-11T09:02:40.420Z,98723.56
2024-03-11T09:05:20.358Z,98725.75
2024-03-11T09:07:48.744Z,98716.53
2024-03-11T09:10:16.019Z,98715.47
2024-03-11T09:12:43.910Z,98721.78
2024-03-11T09:15:18.617Z,98725.94
2024-03-11T09:17:49.710Z,98719.75
2024-03-11T09:20:16.847Z,98714.44
2024-03-11T09:22:47.146Z,98715.91
2024-03-11T09:25:19.716Z,98713.47
2024-03-11T09:27:49.983Z,98722.63
2024-03-11T09:30:18.637Z,98712.34
2024-03-11T09:32:47.510Z,98725.38
2024-03-11T09:35:17.834Z,98725.22
2024-03-11T09:37:46.010Z,98728.78
2024-03-11T09:40:13.032Z,98720.59
2024-03-11T09:42:40.370Z,98734.28
2024-03-11T09:45:08.752Z,98714.41
2024-03-11T09:47:37.289Z,98726.38
2024-03-11T09:50:04.945Z,98724.03
2024-03-11T09:52:34.315Z,98713.25
2024-03-11T09:55:00.899Z,98720.66
2024-03-11T09:57:27.986Z,98741.72
2024-03-11T09:59:55.544Z,98736.84
2024-03-11T10:02:24.892Z,98746.97
2024-03-11T10:04:55.098Z,98720.69
2024-03-11T10:07:24.303Z,98722.88
2024-03-11T10:09:51.032Z,98732.06
2024-03-11T10:12:20.310Z,98726.44
2024-03-11T10:14:49.016Z,98722.19
2024-03-11T10:17:28.015Z,98721.53
2024-03-11T10:19:57.358Z,98722.09
2024-03-11T10:22:25.277Z,98725.78
2024-03-11T10:25:01.869Z,98721.81
2024-03-11T10:27:33.114Z,98722.34
2024-03-11T10:30:21.760Z,98736.06
2024-03-11T10:32:56.523Z,98725.50
2024-03-11T10:35:24.125Z,98717.47
2024-03-11T10:37:55.623Z,98710.31
2024-03-11T10:40:31.765Z,98705.94
2024-03-11T10:43:02.562Z,98698.25
2024-03-11T10:45:31.292Z,98675.22
2024-03-11T10:48:10.666Z,98665.09
2024-03-11T10:50:37.327Z,98678.63
2024-03-11T10:53:08.160Z,98684.06
2024-03-11T10:55:35.584Z,98661.44
2024-03-11T10:58:04.312Z,98663.63
2024-03-11T11:00:36.028Z,98671.03
2024-03-11T11:03:13.844Z,98652.16
2024-03-11T11:05:44.521Z,98645.00
2024-03-11T11:08:14.038Z,98630.63
2024-03-11T11:10:42.968Z,98620.63
2024-03-11T11:13:09.961Z,98606.69
2024-03-11T11:15:37.787Z,98606.00
2024-03-11T11:18:14.621Z,98619.81
2024-03-11T11:20:48.199Z,98638.09
2024-03-11T11:23:26.617Z,98648.91
2024-03-11T11:25:56.649Z,98641.25
2024-03-11T11:28:40.910Z,98641.09
2024-03-11T11:31:15.710Z,98636.84
2024-03-11T11:33:57.750Z,98641.38
2024-03-11T11:36:33.611Z,98660.44
2024-03-11T11:39:15.907Z,98656.03
2024-03-11T11:41:46.611Z,98664.81
2024-03-11T11:44:33.222Z,98667.13
2024-03-11T11:47:06.425Z,98656.19
2024-03-11T11:49:35.887Z,98658.94
2024-03-11T11:52:03.603Z,98651.38
2024-03-11T11:54:36.294Z,98651.53
2024-03-11T11:57:06.068Z,98651.91
2024-03-11T11:59:39.267Z,98648.75
2024-03-11T12:02:07.565Z,98641.34
2024-03-11T12:04:37.004Z,98630.09
2024-03-11T12:07:05.350Z,98627.06
2024-03-11T12:09:35.509Z,98618.94
2024-03-11T12:12:02.547Z,98621.44
2024-03-11T12:14:32.781Z,98614.03
2024-03-11T12:17:08.877Z,98603.31
2024-03-11T12:19:37.149Z,98598.94
2024-03-11T12:22:05.789Z,98596.03
2024-03-11T12:24:32.956Z,98581.66
2024-03-11T12:27:00.033Z,98580.25
2024-03-11T12:29:26.844Z,98580.56
2024-03-11T12:31:56.677Z,98561.63
2024-03-11T12:34:27.102Z,98555.59
2024-03-11T12:36:56.266Z,98551.00
2024-03-11T12:39:35.187Z,98545.88
2024-03-11T12:42:01.923Z,98527.38
2024-03-11T12:44:28.730Z,98530.19
2024-03-11T12:46:57.254Z,98526.47
2024-03-11T12:49:25.953Z,98509.69
2024-03-11T12:52:10.088Z,98515.53
2024-03-11T12:54:38.813Z,98526.91
2024-03-11T12:57:13.858Z,98525.00
2024-03-11T12:59:42.703Z,98506.06
2024-03-11T13:02:10.723Z,98510.19
2024-03-11T13:04:38.213Z,98499.25
2024-03-11T13:07:10.476Z,98499.38
2024-03-11T13:09:37.446Z,98498.25
2024-03-11T13:12:05.034Z,98506.75
2024-03-11T13:14:31.967Z,98525.41
2024-03-11T13:16:58.477Z,98539.25
2024-03-11T13:19:28.404Z,98543.69
2024-03-11T13:21:56.624Z,98552.19
2024-03-11T13:24:34.010Z,98538.59
2024-03-11T13:27:00.617Z,98542.72
2024-03-11T13:29:27.133Z,98537.75
2024-03-11T13:31:54.271Z,98534.31
2024-03-11T13:34:23.128Z,98527.28
2024-03-11T13:36:51.762Z,98518.00
2024-03-11T13:39:19.152Z,98528.50
2024-03-11T13:41:48.268Z,98509.75
2024-03-11T13:44:21.519Z,98504.53
2024-03-11T13:46:49.691Z,98506.28
2024-03-11T13:49:19.894Z,98495.16
2024-03-11T13:51:46.462Z,98495.56
2024-03-11T13:54:13.057Z,98495.25
2024-03-11T13:56:40.971Z,98488.41
2024-03-11T13:59:07.568Z,98487.88
2024-03-11T14:01:34.185Z,98481.03
2024-03-11T14:04:00.815Z,98484.06
2024-03-11T14:06:29.121Z,98488.31
2024-03-11T14:08:56.169Z,98475.34
2024-03-11T14:11:22.846Z,98468.22
2024-03-11T14:13:49.454Z,98456.38
2024-03-11T14:16:16.298Z,98465.38
2024-03-11T14:18:43.910Z,98460.63
2024-03-11T14:21:10.598Z,98455.94
2024-03-11T14:23:37.619Z,98453.47
2024-03-11T14:26:04.927Z,98450.03
2024-03-11T14:28:34.622Z,98443.63
2024-03-11T14:31:04.184Z,98448.56
2024-03-11T14:33:31.198Z,98447.72
2024-03-11T14:35:57.958Z,98438.97
2024-03-11T14:38:24.700Z,98421.88
2024-03-11T14:40:51.980Z,98432.69
2024-03-11T14:43:19.821Z,98430.06
2024-03-11T14:45:49.187Z,98433.06
2024-03-11T14:48:18.091Z,98433.19
2024-03-11T14:50:46.665Z,98421.31
2024-03-11T14:53:15.245Z,98421.44
2024-03-11T14:55:43.502Z,98425.25
2024-03-11T14:58:14.100Z,98417.06
2024-03-11T15:00:50.941Z,98424.59
2024-03-11T15:03:21.615Z,98416.41
2024-03-11T15:05:49.164Z,98427.19
2024-03-11T15:08:20.870Z,98427.34
2024-03-11T15:10:48.156Z,98422.44
2024-03-11T15:13:17.891Z,98423.44
2024-03-11T15:15:48.344Z,98420.84
2024-03-11T15:18:18.499Z,98428.91
2024-03-11T15:20:49.969Z,98434.66
2024-03-11T15:23:24.320Z,98434.13
2024-03-11T15:25:54.492Z,98433.16
2024-03-11T15:28:21.577Z,98431.25
2024-03-11T15:30:48.580Z,98436.72
2024-03-11T15:33:17.202Z,98425.47
2024-03-11T15:35:43.868Z,98421.84
2024-03-11T15:38:13.062Z,98429.34
2024-03-11T15:40:42.480Z,98431.94
2024-03-11T15:43:09.680Z,98428.38
2024-03-11T15:45:38.192Z,98429.34
2024-03-11T15:48:05.617Z,98427.56
2024-03-11T15:50:35.686Z,98432.78
2024-03-11T15:53:03.402Z,98436.31
2024-03-11T15:55:30.160Z,98435.63
2024-03-11T15:58:04.803Z,98439.59
2024-03-11T16:00:37.318Z,98436.03
2024-03-11T16:03:08.297Z,98432.06
2024-03-11T16:05:38.964Z,98428.13
2024-03-11T16:08:07.025Z,98424.88
2024-03-11T16:10:33.525Z,98427.59
2024-03-11T16:13:00.172Z,98437.72
2024-03-11T16:15:28.281Z,98434.44
2024-03-11T16:17:55.699Z,98430.63
2024-03-11T16:20:25.494Z,98442.41
2024-03-11T16:22:54.364Z,98435.97
2024-03-11T16:25:22.390Z,98442.97
2024-03-11T16:27:51.514Z,98442.00
2024-03-11T16:30:23.968Z,98427.94
2024-03-11T16:32:53.509Z,98446.53
2024-03-11T16:35:28.738Z,98433.69
2024-03-11T16:37:59.644Z,98433.44
2024-03-11T16:40:28.033Z,98430.56
2024-03-11T16:43:02.256Z,98436.88
2024-03-11T16:45:28.947Z,98433.47
2024-03-11T16:47:58.642Z,98419.78
2024-03-11T16:50:25.629Z,98431.56
2024-03-11T16:52:54.274Z,98427.34
2024-03-11T16:55:32.452Z,98431.84
2024-03-11T16:58:00.646Z,98428.56
2024-03-11T17:00:37.255Z,98435.97
2024-03-11T17:03:04.419Z,98439.97
2024-03-11T17:05:31.953Z,98437.13
2024-03-11T17:07:59.084Z,98434.94
2024-03-11T17:10:33.141Z,98442.56
2024-03-11T17:13:05.037Z,98449.28
2024-03-11T17:15:35.644Z,98446.81
2024-03-11T17:18:02.856Z,98435.06
2024-03-11T17:20:40.489Z,98439.44
2024-03-11T17:23:09.770Z,98446.41
2024-03-11T17:25:37.709Z,98447.53
2024-03-11T17:28:07.496Z,98445.75
2024-03-11T17:30:35.836Z,98437.53
2024-03-11T17:33:15.490Z,98427.03
2024-03-11T17:35:46.924Z,98437.97
2024-03-11T17:38:14.596Z,98432.47
2024-03-11T17:40:45.042Z,98434.28
2024-03-11T17:43:14.797Z,98439.03
2024-03-11T17:45:45.290Z,98432.22
2024-03-11T17:48:17.078Z,98440.28
2024-03-11T17:50:44.512Z,98446.16
2024-03-11T17:53:14.472Z,98432.34
2024-03-11T17:55:45.038Z,98428.81
2024-03-11T17:58:12.478Z,98429.50
2024-03-11T18:00:41.450Z,98428.69
2024-03-11T18:03:10.996Z,98437.00
2024-03-11T18:05:38.125Z,98439.31
2024-03-11T18:08:07.597Z,98428.41
2024-03-11T18:10:37.814Z,98439.19
2024-03-11T18:13:12.553Z,98433.84
2024-03-11T18:15:42.556Z,98433.88
2024-03-11T18:18:14.525Z,98440.16
2024-03-11T18:20:42.386Z,98446.19
2024-03-11T18:23:15.169Z,98451.09
2024-03-11T18:25:47.937Z,98443.44
2024-03-11T18:28:14.687Z,98427.72
2024-03-11T18:30:42.736Z,98444.28
2024-03-11T18:33:09.756Z,98433.06
2024-03-11T18:35:36.912Z,98441.25
2024-03-11T18:38:07.812Z,98440.16
2024-03-11T18:40:35.695Z,98439.50
2024-03-11T18:43:05.804Z,98441.25
2024-03-11T18:45:33.975Z,98437.00
2024-03-11T18:48:02.100Z,98440.97
2024-03-11T18:50:31.942Z,98440.97
2024-03-11T18:53:01.564Z,98439.50
2024-03-11T18:55:33.511Z,98449.72
2024-03-11T18:58:02.065Z,98437.13
2024-03-11T19:00:31.343Z,98448.91
2024-03-11T19:03:00.139Z,98442.34
2024-03-11T19:05:27.497Z,98444.69
2024-03-11T19:07:55.532Z,98431.41
2024-03-11T19:10:27.818Z,98441.09
2024-03-11T19:12:55.530Z,98443.56
2024-03-11T19:15:25.542Z,98447.00
2024-03-11T19:17:53.132Z,98455.22
2024-03-11T19:20:24.680Z,98448.66
2024-03-11T19:22:56.351Z,98456.84
2024-03-11T19:25:30.591Z,98451.91
2024-03-11T19:27:58.726Z,98462.06
2024-03-11T19:30:29.636Z,98468.88
2024-03-11T19:32:58.328Z,98458.75
2024-03-11T19:35:26.671Z,98460.69
2024-03-11T19:38:16.127Z,98461.63
2024-03-11T19:41:03.930Z,98460.69
2024-03-11T19:43:44.546Z,98462.47
2024-03-11T19:46:33.394Z,98464.25
2024-03-11T19:49:33.786Z,98457.69
2024-03-11T19:52:44.432Z,98468.31
2024-03-11T19:55:49.268Z,98475.44
2024-03-11T19:58:22.544Z,98482.56
2024-03-11T20:01:12.966Z,98480.94
2024-03-11T20:04:04.479Z,98482.56
2024-03-11T20:07:06.256Z,98491.31
2024-03-11T20:10:01.983Z,98500.03
2024-03-11T20:12:49.503Z,98481.44
2024-03-11T20:15:39.012Z,98494.31
2024-03-11T20:18:39.916Z,98497.84
2024-03-11T20:21:25.204Z,98494.56
2024-03-11T20:24:33.687Z,98509.19
2024-03-11T20:27:25.576Z,98495.38
2024-03-11T20:30:00.390Z,98487.88
2024-03-11T20:32:27.055Z,98499.19
2024-03-11T20:34:55.425Z,98491.41
2024-03-11T20:37:22.231Z,98498.13
2024-03-11T20:39:48.830Z,98499.75
2024-03-11T20:42:17.223Z,98502.22
2024-03-11T20:44:43.789Z,98498.91
2024-03-11T20:47:10.280Z,98500.44
2024-03-11T20:49:37.048Z,98495.91
2024-03-11T20:52:03.802Z,98487.19
2024-03-11T20:54:32.916Z,98494.31
2024-03-11T20:57:00.803Z,98490.47
2024-03-11T20:59:27.554Z,98496.91
2024-03-11T21:01:54.153Z,98493.72
2024-03-11T21:04:20.803Z,98491.28
2024-03-11T21:06:48.160Z,98491.53
2024-03-11T21:09:14.858Z,98504.94
2024-03-11T21:11:42.389Z,98511.38
2024-03-11T21:14:09.988Z,98510.13
2024-03-11T21:16:36.573Z,98508.66
2024-03-11T21:19:10.185Z,98513.44
2024-03-11T21:22:06.465Z,98507.00
2024-03-11T21:24:48.194Z,98507.00
2024-03-11T21:27:24.822Z,98504.13
2024-03-11T21:29:55.379Z,98511.38
2024-03-11T21:32:25.704Z,98517.38
2024-03-11T21:34:54.957Z,98512.31
2024-03-11T21:37:21.595Z,98530.38
2024-03-11T21:39:54.522Z,98527.66
2024-03-11T21:42:22.287Z,98504.53
2024-03-11T21:44:50.044Z,98513.13
2024-03-11T21:47:23.935Z,98515.63
2024-03-11T21:49:51.009Z,98515.63
2024-03-11T21:52:18.741Z,98514.78
2024-03-11T21:54:47.358Z,98507.94
2024-03-11T21:57:14.282Z,98511.53
2024-03-11T21:59:47.369Z,98517.94
2024-03-11T22:02:16.184Z,98523.94
2024-03-11T22:04:43.029Z,98514.38
2024-03-11T22:07:12.734Z,98516.84
2024-03-11T22:09:40.235Z,98511.78
2024-03-11T22:12:08.803Z,98509.16
2024-03-11T22:14:38.413Z,98512.06
2024-03-11T22:17:08.972Z,98508.19
2024-03-11T22:19:35.648Z,98519.97
2024-03-11T22:22:04.803Z,98515.03
2024-03-11T22:24:32.028Z,98515.03
2024-03-11T22:27:04.171Z,98511.78
2024-03-11T22:29:35.211Z,98515.88
2024-03-11T22:32:01.785Z,98521.06
2024-03-11T22:34:28.423Z,98523.78
2024-03-11T22:36:56.102Z,98518.16
2024-03-11T22:39:24.423Z,98528.44
2024-03-11T22:41:51.907Z,98536.09
2024-03-11T22:44:19.014Z,98533.63
2024-03-11T22:46:45.819Z,98540.03
2024-03-11T22:49:14.438Z,98539.34
2024-03-11T22:51:44.006Z,98537.03
2024-03-11T22:54:10.935Z,98538.94
2024-03-11T22:56:38.582Z,98538.50
2024-03-11T22:59:05.750Z,98533.59
2024-03-11T23:01:34.815Z,98531.41
2024-03-11T23:04:06.041Z,98525.34
2024-03-11T23:06:34.082Z,98528.50
2024-03-11T23:09:01.007Z,98521.50
2024-03-11T23:11:27.901Z,98529.16
2024-03-11T23:13:54.647Z,98535.41
2024-03-11T23:16:22.201Z,98538.41
2024-03-11T23:18:51.486Z,98532.91
2024-03-11T23:21:18.513Z,98532.09
2024-03-11T23:23:46.813Z,98535.78
2024-03-11T23:26:14.400Z,98535.91
2024-03-11T23:28:41.832Z,98515.38
2024-03-11T23:31:10.655Z,98521.50
2024-03-11T23:33:37.809Z,98535.56
2024-03-11T23:36:04.802Z,98536.63
2024-03-11T23:38:34.150Z,98535.00
2024-03-11T23:41:00.734Z,98539.22
2024-03-11T23:43:27.346Z,98539.38
2024-03-11T23:45:55.436Z,98536.88
2024-03-11T23:48:26.325Z,98537.16
2024-03-11T23:50:56.748Z,98531.38
2024-03-11T23:53:26.448Z,98540.13
2024-03-11T23:56:00.135Z,98538.03
2024-03-11T23:58:33.336Z,98530.16
